Armada, Michigan
Current Conditions -  °F | °C
As of 1:13 PM on Thursday 27 Nov 2014 (Local Time) from KMTC Reporting Station
Overcast Overcast  
Wind Chill: 26°   Ceiling: 3500
Heat Index: 34°   Visibility: 10mi
Dew Point: 23°   Wind: 10mph
Humidity: 65%   Direction: 300°WNW
Pressure: 30.11"   Gusts: NA
Location:  42.84°N, 82.88°W
Report Text: KMTC 271813Z AUTO 30009KT 10SM SCT029 OVC035 01/M05 A3011 RMK AO2 CIG 029 RWY19
Loading
Personal Weather Stations






























Interactive Weather Map New forecast layout! Learn more

10-Day Weather Forecast

Advertisements
Track Severe Weather on mobile